createdAt,value
2023-05-22T00:02:00.372Z,17.50
2023-05-22T00:04:26.888Z,17.50
2023-05-22T00:06:53.787Z,17.50
2023-05-22T00:09:20.546Z,17.50
2023-05-22T00:11:47.842Z,17.50
2023-05-22T00:14:14.385Z,17.50
2023-05-22T00:16:41.472Z,17.60
2023-05-22T00:19:08.373Z,17.60
2023-05-22T00:21:34.917Z,17.60
2023-05-22T00:24:02.311Z,17.60
2023-05-22T00:26:28.840Z,17.70
2023-05-22T00:28:56.229Z,17.70
2023-05-22T00:31:23.367Z,17.70
2023-05-22T00:33:50.261Z,17.70
2023-05-22T00:36:16.881Z,17.70
2023-05-22T00:38:43.685Z,17.70
2023-05-22T00:41:10.831Z,17.70
2023-05-22T00:43:39.385Z,17.70
2023-05-22T00:46:06.371Z,17.70
2023-05-22T00:48:33.065Z,17.60
2023-05-22T00:51:00.477Z,17.60
2023-05-22T00:53:28.723Z,17.60
2023-05-22T00:55:57.640Z,17.50
2023-05-22T00:58:26.777Z,17.50
2023-05-22T01:00:53.788Z,17.50
2023-05-22T01:03:20.766Z,17.60
2023-05-22T01:05:47.707Z,17.60
2023-05-22T01:08:14.569Z,17.60
2023-05-22T01:10:41.284Z,17.60
2023-05-22T01:13:30.042Z,17.60
2023-05-22T01:16:03.628Z,17.70
2023-05-22T01:18:34.470Z,17.70
2023-05-22T01:21:13.649Z,17.70
2023-05-22T01:23:40.551Z,17.70
2023-05-22T01:26:21.056Z,17.70
2023-05-22T01:29:29.026Z,17.80
2023-05-22T01:31:58.879Z,17.80
2023-05-22T01:34:26.925Z,17.80
2023-05-22T01:36:55.352Z,17.80
2023-05-22T01:39:24.595Z,17.80
2023-05-22T01:41:51.530Z,17.80
2023-05-22T01:44:18.425Z,17.80
2023-05-22T01:46:45.486Z,17.80
2023-05-22T01:49:11.965Z,17.80
2023-05-22T01:52:03.731Z,17.70
2023-05-22T01:54:43.812Z,17.80
2023-05-22T01:57:16.552Z,17.80
2023-05-22T01:59:45.730Z,17.80
2023-05-22T02:02:15.808Z,17.80
2023-05-22T02:04:46.244Z,17.80
2023-05-22T02:07:14.276Z,17.80
2023-05-22T02:09:42.217Z,17.80
2023-05-22T02:12:09.376Z,17.80
2023-05-22T02:14:37.060Z,17.80
2023-05-22T02:17:05.202Z,17.80
2023-05-22T02:19:35.035Z,17.80
2023-05-22T02:22:02.439Z,17.80
2023-05-22T02:24:30.892Z,17.80
2023-05-22T02:26:57.416Z,17.80
2023-05-22T02:29:24.585Z,17.80
2023-05-22T02:31:53.655Z,17.80
2023-05-22T02:34:20.528Z,17.80
2023-05-22T02:36:47.050Z,17.80
2023-05-22T02:39:13.902Z,17.80
2023-05-22T02:41:40.757Z,17.80
2023-05-22T02:44:07.243Z,17.80
2023-05-22T02:46:34.272Z,17.80
2023-05-22T02:49:00.774Z,17.80
2023-05-22T02:51:27.283Z,17.80
2023-05-22T02:53:54.146Z,17.80
2023-05-22T02:56:20.997Z,17.80
2023-05-22T02:58:47.976Z,17.80
2023-05-22T03:01:14.897Z,17.80
2023-05-22T03:03:41.888Z,17.70
2023-05-22T03:06:08.928Z,17.70
2023-05-22T03:08:36.143Z,17.70
2023-05-22T03:11:02.618Z,17.70
2023-05-22T03:13:29.588Z,17.70
2023-05-22T03:15:56.114Z,17.70
2023-05-22T03:18:24.301Z,17.70
2023-05-22T03:20:52.492Z,17.70
2023-05-22T03:23:19.596Z,17.70
2023-05-22T03:25:46.492Z,17.60
2023-05-22T03:28:13.348Z,17.60
2023-05-22T03:30:40.518Z,17.60
2023-05-22T03:33:07.714Z,17.50
2023-05-22T03:35:34.637Z,17.50
2023-05-22T03:38:01.113Z,17.50
2023-05-22T03:40:27.880Z,17.40
2023-05-22T03:42:54.391Z,17.40
2023-05-22T03:45:21.339Z,17.40
2023-05-22T03:47:48.074Z,17.30
2023-05-22T03:50:14.944Z,17.30
2023-05-22T03:52:41.431Z,17.30
2023-05-22T03:55:08.955Z,17.20
2023-05-22T03:57:35.726Z,17.20
2023-05-22T04:00:02.236Z,17.20
2023-05-22T04:02:29.234Z,17.20
2023-05-22T04:04:55.807Z,17.20
2023-05-22T04:07:22.733Z,17.10
2023-05-22T04:09:49.595Z,17.10
2023-05-22T04:12:16.123Z,17.10
2023-05-22T04:14:42.938Z,17.10
2023-05-22T04:17:09.770Z,17.10
2023-05-22T04:19:36.302Z,17.20
2023-05-22T04:22:03.246Z,17.20
2023-05-22T04:24:29.746Z,17.20
2023-05-22T04:26:56.614Z,17.30
2023-05-22T04:29:23.476Z,17.30
2023-05-22T04:31:49.990Z,17.30
2023-05-22T04:34:17.354Z,17.40
2023-05-22T04:36:43.887Z,17.40
2023-05-22T04:39:10.724Z,17.50
2023-05-22T04:41:37.208Z,17.50
2023-05-22T04:44:03.807Z,17.60
2023-05-22T04:46:30.652Z,17.60
2023-05-22T04:48:57.162Z,17.70
2023-05-22T04:51:23.670Z,17.70
2023-05-22T04:53:50.158Z,17.70
2023-05-22T04:56:27.974Z,17.80
2023-05-22T04:59:01.694Z,17.80
2023-05-22T05:01:29.902Z,17.90
2023-05-22T05:03:57.518Z,18.00
2023-05-22T05:06:24.062Z,18.10
2023-05-22T05:08:50.912Z,18.20
2023-05-22T05:11:17.450Z,18.40
2023-05-22T05:13:44.293Z,18.50
2023-05-22T05:16:10.805Z,18.60
2023-05-22T05:18:37.923Z,18.70
2023-05-22T05:21:04.982Z,18.80
2023-05-22T05:23:31.844Z,19.00
2023-05-22T05:25:58.334Z,19.10
2023-05-22T05:28:24.837Z,19.20
2023-05-22T05:30:51.537Z,19.50
2023-05-22T05:33:18.066Z,19.80
2023-05-22T05:35:44.970Z,20.20
2023-05-22T05:38:11.487Z,20.50
2023-05-22T05:40:38.585Z,20.80
2023-05-22T05:43:06.654Z,21.10
2023-05-22T05:45:34.555Z,21.20
2023-05-22T05:48:01.323Z,21.30
2023-05-22T05:50:27.856Z,21.30
2023-05-22T05:52:54.734Z,21.30
2023-05-22T05:55:21.578Z,21.50
2023-05-22T05:57:48.472Z,21.80
2023-05-22T06:00:15.888Z,22.00
2023-05-22T06:02:42.865Z,22.40
2023-05-22T06:05:09.832Z,22.70
2023-05-22T06:07:36.957Z,23.00
2023-05-22T06:10:07.843Z,23.30
2023-05-22T06:12:34.340Z,23.60
2023-05-22T06:15:01.182Z,24.10
2023-05-22T06:17:27.686Z,24.60
2023-05-22T06:19:54.585Z,25.00
2023-05-22T06:22:21.147Z,25.50
2023-05-22T06:24:48.203Z,25.90
2023-05-22T06:27:14.732Z,26.30
2023-05-22T06:29:41.375Z,26.80
2023-05-22T06:32:08.420Z,27.30
2023-05-22T06:34:35.442Z,27.70
2023-05-22T06:37:02.284Z,28.10
2023-05-22T06:39:29.840Z,28.30
2023-05-22T06:41:58.177Z,28.30
2023-05-22T06:44:24.742Z,28.10
2023-05-22T06:46:52.476Z,27.80
2023-05-22T06:49:19.512Z,27.30
2023-05-22T06:51:46.332Z,26.70
2023-05-22T06:54:13.917Z,26.30
2023-05-22T06:56:40.958Z,26.10
2023-05-22T06:59:07.625Z,25.90
2023-05-22T07:01:34.149Z,25.90
2023-05-22T07:04:01.122Z,25.90
2023-05-22T07:06:28.101Z,26.60
2023-05-22T07:08:54.888Z,27.00
2023-05-22T07:11:21.386Z,27.20
2023-05-22T07:13:48.248Z,27.10
2023-05-22T07:16:16.249Z,27.30
2023-05-22T07:18:43.220Z,27.50
2023-05-22T07:21:10.136Z,27.90
2023-05-22T07:23:36.847Z,28.10
2023-05-22T07:26:03.816Z,27.90
2023-05-22T07:28:30.739Z,27.40
2023-05-22T07:30:57.246Z,27.00
2023-05-22T07:33:24.090Z,26.70
2023-05-22T07:35:50.578Z,26.60
2023-05-22T07:38:17.620Z,26.70
2023-05-22T07:40:44.125Z,26.60
2023-05-22T07:43:11.065Z,26.40
2023-05-22T07:45:37.815Z,25.90
2023-05-22T07:48:04.932Z,25.70
2023-05-22T07:50:31.423Z,26.00
2023-05-22T07:52:58.272Z,26.00
2023-05-22T07:55:24.800Z,25.90
2023-05-22T07:57:52.039Z,26.00
2023-05-22T08:00:19.418Z,26.30
2023-05-22T08:02:46.290Z,26.40
2023-05-22T08:05:13.285Z,27.00
2023-05-22T08:07:39.924Z,27.60
2023-05-22T08:10:26.348Z,27.90
2023-05-22T08:12:53.147Z,27.70
2023-05-22T08:15:19.765Z,27.60
2023-05-22T08:17:46.324Z,27.30
2023-05-22T08:20:13.010Z,27.00
2023-05-22T08:22:39.878Z,27.10
2023-05-22T08:25:06.625Z,27.00
2023-05-22T08:27:33.494Z,26.70
2023-05-22T08:30:00.424Z,26.70
2023-05-22T08:32:28.147Z,26.90
2023-05-22T08:34:56.104Z,26.90
2023-05-22T08:37:22.642Z,27.00
2023-05-22T08:39:49.487Z,27.00
2023-05-22T08:42:16.046Z,26.60
2023-05-22T08:44:43.028Z,26.40
2023-05-22T08:47:10.463Z,26.00
2023-05-22T08:49:39.749Z,25.70
2023-05-22T08:52:12.442Z,25.30
2023-05-22T08:54:42.285Z,24.90
2023-05-22T08:57:09.049Z,24.60
2023-05-22T08:59:38.542Z,24.40
2023-05-22T09:02:06.901Z,24.10
2023-05-22T09:04:33.600Z,23.90
2023-05-22T09:07:00.348Z,23.90
2023-05-22T09:09:26.850Z,23.90
2023-05-22T09:11:55.348Z,24.00
2023-05-22T09:14:21.856Z,24.20
2023-05-22T09:16:51.959Z,24.80
2023-05-22T09:19:18.980Z,25.40
2023-05-22T09:21:46.296Z,25.90
2023-05-22T09:24:13.024Z,26.10
2023-05-22T09:26:40.497Z,26.40
2023-05-22T09:29:07.199Z,27.00
2023-05-22T09:31:41.723Z,27.40
2023-05-22T09:34:10.258Z,27.50
2023-05-22T09:36:37.220Z,28.00
2023-05-22T09:39:04.987Z,28.70
2023-05-22T09:41:35.862Z,29.20
2023-05-22T09:44:06.980Z,29.60
2023-05-22T09:46:42.553Z,29.90
2023-05-22T09:49:09.518Z,30.10
2023-05-22T09:51:39.564Z,30.50
2023-05-22T09:54:08.310Z,30.90
2023-05-22T09:56:39.918Z,30.70
2023-05-22T09:59:09.345Z,30.70
2023-05-22T10:01:38.635Z,31.20
2023-05-22T10:04:06.060Z,31.40
2023-05-22T10:06:33.472Z,31.70
2023-05-22T10:09:06.800Z,32.00
2023-05-22T10:11:35.100Z,32.20
2023-05-22T10:14:03.686Z,32.50
2023-05-22T10:16:31.194Z,32.60
2023-05-22T10:18:58.618Z,32.50
2023-05-22T10:21:25.241Z,32.50
2023-05-22T10:23:52.805Z,32.70
2023-05-22T10:26:19.979Z,32.50
2023-05-22T10:28:53.615Z,32.50
2023-05-22T10:31:35.060Z,32.50
2023-05-22T10:34:07.164Z,32.50
2023-05-22T10:37:13.045Z,32.40
2023-05-22T10:40:05.111Z,32.60
2023-05-22T10:42:32.178Z,32.90
2023-05-22T10:45:00.842Z,33.00
2023-05-22T10:47:27.436Z,33.00
2023-05-22T10:50:12.194Z,32.50
2023-05-22T10:52:39.340Z,32.40
2023-05-22T10:55:10.471Z,32.20
2023-05-22T10:57:38.561Z,32.40
2023-05-22T11:00:17.987Z,32.00
2023-05-22T11:02:45.864Z,31.90
2023-05-22T11:05:18.691Z,31.60
2023-05-22T11:07:45.270Z,31.20
2023-05-22T11:10:11.778Z,31.00
2023-05-22T11:12:38.645Z,30.70
2023-05-22T11:15:11.291Z,30.60
2023-05-22T11:17:43.098Z,30.70
2023-05-22T11:20:18.466Z,30.80
2023-05-22T11:22:51.108Z,31.00
2023-05-22T11:25:19.253Z,30.90
2023-05-22T11:27:47.403Z,30.90
2023-05-22T11:30:15.273Z,30.60
2023-05-22T11:32:44.604Z,30.40
2023-05-22T11:35:29.647Z,30.20
2023-05-22T11:37:56.491Z,29.90
2023-05-22T11:40:24.859Z,29.80
2023-05-22T11:42:52.755Z,29.60
2023-05-22T11:45:19.327Z,29.40
2023-05-22T11:47:45.989Z,29.40
2023-05-22T11:50:13.073Z,29.00
2023-05-22T11:52:42.078Z,28.90
2023-05-22T11:55:10.151Z,28.80
2023-05-22T11:57:37.751Z,28.80
2023-05-22T12:00:09.100Z,28.80
2023-05-22T12:02:35.883Z,28.70
2023-05-22T12:05:02.896Z,28.70
2023-05-22T12:07:29.544Z,28.70
2023-05-22T12:09:56.836Z,28.80
2023-05-22T12:12:24.078Z,28.70
2023-05-22T12:14:50.616Z,28.70
2023-05-22T12:17:17.683Z,28.60
2023-05-22T12:19:44.657Z,28.50
2023-05-22T12:22:12.279Z,28.40
2023-05-22T12:24:43.091Z,28.50
2023-05-22T12:27:10.689Z,28.40
2023-05-22T12:29:41.313Z,28.40
2023-05-22T12:32:10.546Z,28.30
2023-05-22T12:34:43.833Z,28.20
2023-05-22T12:37:23.023Z,28.20
2023-05-22T12:40:00.292Z,28.20
2023-05-22T12:42:27.665Z,28.20
2023-05-22T12:44:56.148Z,28.20
2023-05-22T12:47:24.280Z,28.30
2023-05-22T12:49:51.460Z,28.30
2023-05-22T12:52:18.335Z,28.20
2023-05-22T12:54:45.114Z,28.30
2023-05-22T12:57:11.631Z,28.30
2023-05-22T12:59:38.193Z,28.20
2023-05-22T13:02:05.436Z,28.10
2023-05-22T13:04:32.187Z,28.10
2023-05-22T13:06:58.973Z,28.10
2023-05-22T13:09:25.874Z,28.10
2023-05-22T13:11:52.976Z,28.10
2023-05-22T13:14:19.581Z,28.10
2023-05-22T13:16:46.131Z,28.10
2023-05-22T13:19:13.033Z,28.00
2023-05-22T13:21:39.606Z,27.80
2023-05-22T13:24:06.759Z,27.80
2023-05-22T13:26:33.643Z,27.90
2023-05-22T13:29:00.143Z,27.90
2023-05-22T13:31:26.717Z,27.90
2023-05-22T13:33:53.333Z,28.00
2023-05-22T13:36:20.231Z,27.90
2023-05-22T13:38:46.919Z,28.00
2023-05-22T13:41:13.770Z,28.00
2023-05-22T13:43:40.264Z,28.00
2023-05-22T13:46:06.785Z,28.00
2023-05-22T13:48:33.621Z,28.00
2023-05-22T13:51:00.111Z,28.10
2023-05-22T13:53:26.977Z,28.00
2023-05-22T13:55:53.467Z,28.10
2023-05-22T13:58:19.976Z,28.10
2023-05-22T14:00:46.779Z,28.10
2023-05-22T14:03:13.466Z,28.10
2023-05-22T14:05:40.568Z,28.10
2023-05-22T14:08:07.338Z,28.20
2023-05-22T14:10:34.272Z,28.20
2023-05-22T14:13:01.144Z,28.30
2023-05-22T14:15:28.077Z,28.10
2023-05-22T14:17:54.593Z,28.10
2023-05-22T14:20:21.134Z,28.10
2023-05-22T14:22:57.154Z,28.10
2023-05-22T14:25:25.929Z,28.20
2023-05-22T14:27:52.737Z,28.20
2023-05-22T14:30:19.385Z,28.20
2023-05-22T14:32:46.150Z,28.30
2023-05-22T14:35:12.709Z,28.30
2023-05-22T14:37:39.342Z,28.50
2023-05-22T14:40:06.670Z,28.50
2023-05-22T14:42:33.177Z,28.50
2023-05-22T14:44:59.857Z,28.50
2023-05-22T14:47:26.363Z,28.60
2023-05-22T14:49:55.552Z,28.70
2023-05-22T14:52:26.491Z,28.90
2023-05-22T14:54:52.992Z,29.10
2023-05-22T14:57:19.495Z,29.30
2023-05-22T14:59:45.976Z,29.50
2023-05-22T15:02:12.617Z,29.60
2023-05-22T15:04:39.290Z,29.60
2023-05-22T15:07:05.885Z,29.50
2023-05-22T15:09:32.412Z,29.30
2023-05-22T15:11:59.249Z,29.10
2023-05-22T15:14:25.763Z,28.80
2023-05-22T15:16:52.338Z,28.50
2023-05-22T15:19:19.162Z,28.30
2023-05-22T15:21:45.764Z,28.10
2023-05-22T15:24:13.473Z,28.00
2023-05-22T15:26:39.988Z,27.80
2023-05-22T15:29:06.613Z,27.60
2023-05-22T15:31:33.160Z,27.40
2023-05-22T15:33:59.710Z,27.20
2023-05-22T15:36:27.469Z,27.20
2023-05-22T15:38:53.983Z,27.10
2023-05-22T15:41:20.487Z,27.00
2023-05-22T15:43:47.758Z,27.00
2023-05-22T15:46:14.408Z,27.10
2023-05-22T15:48:41.059Z,27.10
2023-05-22T15:51:07.871Z,27.00
2023-05-22T15:53:34.361Z,26.40
2023-05-22T15:56:00.886Z,25.70
2023-05-22T15:58:27.450Z,25.10
2023-05-22T16:00:55.630Z,24.50
2023-05-22T16:03:22.862Z,24.00
2023-05-22T16:05:49.564Z,23.70
2023-05-22T16:08:16.591Z,23.00
2023-05-22T16:10:43.611Z,22.50
2023-05-22T16:13:10.524Z,21.90
2023-05-22T16:15:38.074Z,21.50
2023-05-22T16:18:08.228Z,21.20
2023-05-22T16:20:35.674Z,20.90
2023-05-22T16:23:03.050Z,20.60
2023-05-22T16:25:29.532Z,20.50
2023-05-22T16:27:56.367Z,20.20
2023-05-22T16:30:22.876Z,20.10
2023-05-22T16:32:49.512Z,20.00
2023-05-22T16:35:16.958Z,19.90
2023-05-22T16:37:43.478Z,19.90
2023-05-22T16:40:10.798Z,19.90
2023-05-22T16:42:37.463Z,19.90
2023-05-22T16:45:05.327Z,20.00
2023-05-22T16:47:31.828Z,20.10
2023-05-22T16:49:59.220Z,20.10
2023-05-22T16:52:26.075Z,20.20
2023-05-22T16:54:53.224Z,20.30
2023-05-22T16:57:20.091Z,20.30
2023-05-22T16:59:46.947Z,20.30
2023-05-22T17:02:13.916Z,20.40
2023-05-22T17:04:40.436Z,20.40
2023-05-22T17:07:07.311Z,20.40
2023-05-22T17:09:33.832Z,20.50
2023-05-22T17:12:00.393Z,20.60
2023-05-22T17:14:27.377Z,20.60
2023-05-22T17:16:54.603Z,20.70
2023-05-22T17:19:21.455Z,20.80
2023-05-22T17:21:48.045Z,20.90
2023-05-22T17:24:14.978Z,21.00
2023-05-22T17:26:42.105Z,21.10
2023-05-22T17:29:08.624Z,21.20
2023-05-22T17:31:36.815Z,21.30
2023-05-22T17:34:05.481Z,21.30
2023-05-22T17:36:32.008Z,21.40
2023-05-22T17:38:59.527Z,21.50
2023-05-22T17:41:26.042Z,21.50
2023-05-22T17:43:52.795Z,21.50
2023-05-22T17:46:19.367Z,21.50
2023-05-22T17:48:45.894Z,21.50
2023-05-22T17:51:12.376Z,21.50
2023-05-22T17:53:39.329Z,21.50
2023-05-22T17:56:06.571Z,21.50
2023-05-22T17:58:33.045Z,21.50
2023-05-22T18:00:59.914Z,21.50
2023-05-22T18:03:26.563Z,21.40
2023-05-22T18:05:53.186Z,21.40
2023-05-22T18:08:19.799Z,21.30
2023-05-22T18:10:46.348Z,21.30
2023-05-22T18:13:13.205Z,21.20
2023-05-22T18:15:39.785Z,21.20
2023-05-22T18:18:06.460Z,21.20
2023-05-22T18:20:33.045Z,21.10
2023-05-22T18:22:59.805Z,21.00
2023-05-22T18:25:26.345Z,20.90
2023-05-22T18:27:52.887Z,20.90
2023-05-22T18:30:19.666Z,20.80
2023-05-22T18:32:46.236Z,20.80
2023-05-22T18:35:13.150Z,20.60
2023-05-22T18:37:39.720Z,20.60
2023-05-22T18:40:07.151Z,20.50
2023-05-22T18:42:34.041Z,20.40
2023-05-22T18:45:00.578Z,20.40
2023-05-22T18:47:27.472Z,20.30
2023-05-22T18:49:53.992Z,20.30
2023-05-22T18:52:20.496Z,20.20
2023-05-22T18:54:47.634Z,20.20
2023-05-22T18:57:14.207Z,20.10
2023-05-22T18:59:41.086Z,20.00
2023-05-22T19:02:08.346Z,20.00
2023-05-22T19:04:35.228Z,19.90
2023-05-22T19:07:01.737Z,19.80
2023-05-22T19:09:28.613Z,19.70
2023-05-22T19:11:55.089Z,19.60
2023-05-22T19:14:21.715Z,19.50
2023-05-22T19:16:48.301Z,19.40
2023-05-22T19:19:15.193Z,19.30
2023-05-22T19:21:41.850Z,19.20
2023-05-22T19:24:08.344Z,19.20
2023-05-22T19:26:34.886Z,19.10
2023-05-22T19:29:01.376Z,19.00
2023-05-22T19:31:28.963Z,18.90
2023-05-22T19:33:56.109Z,18.80
2023-05-22T19:36:22.682Z,18.80
2023-05-22T19:38:49.509Z,18.80
2023-05-22T19:41:16.770Z,18.70
2023-05-22T19:43:46.358Z,18.70
2023-05-22T19:46:13.441Z,18.60
2023-05-22T19:48:40.060Z,18.60
2023-05-22T19:51:06.558Z,18.60
2023-05-22T19:53:33.301Z,18.50
2023-05-22T19:56:00.538Z,18.40
2023-05-22T19:58:27.083Z,18.40
2023-05-22T20:00:53.728Z,18.40
2023-05-22T20:03:20.587Z,18.30
2023-05-22T20:05:47.354Z,18.30
2023-05-22T20:08:13.858Z,18.30
2023-05-22T20:10:40.531Z,18.30
2023-05-22T20:13:07.172Z,18.20
2023-05-22T20:15:33.678Z,18.20
2023-05-22T20:18:00.296Z,18.20
2023-05-22T20:20:27.193Z,18.20
2023-05-22T20:22:53.812Z,18.20
2023-05-22T20:25:20.943Z,18.10
2023-05-22T20:27:47.483Z,18.10
2023-05-22T20:30:14.130Z,18.10
2023-05-22T20:32:40.809Z,18.00
2023-05-22T20:35:09.610Z,18.00
2023-05-22T20:37:36.463Z,17.90
2023-05-22T20:40:03.506Z,17.90
2023-05-22T20:42:29.991Z,17.90
2023-05-22T20:44:56.493Z,17.80
2023-05-22T20:47:23.027Z,17.80
2023-05-22T20:49:49.528Z,17.80
2023-05-22T20:52:16.001Z,17.70
2023-05-22T20:54:42.517Z,17.70
2023-05-22T20:57:09.018Z,17.70
2023-05-22T20:59:35.515Z,17.80
2023-05-22T21:02:02.441Z,17.70
2023-05-22T21:04:29.015Z,17.70
2023-05-22T21:06:55.896Z,17.70
2023-05-22T21:09:22.403Z,17.70
2023-05-22T21:11:48.900Z,17.70
2023-05-22T21:14:15.393Z,17.60
2023-05-22T21:16:42.120Z,17.60
2023-05-22T21:19:08.740Z,17.60
2023-05-22T21:21:35.774Z,17.60
2023-05-22T21:24:02.265Z,17.50
2023-05-22T21:26:28.804Z,17.50
2023-05-22T21:28:55.542Z,17.40
2023-05-22T21:31:22.088Z,17.40
2023-05-22T21:33:48.812Z,17.40
2023-05-22T21:36:15.322Z,17.30
2023-05-22T21:38:42.216Z,17.30
2023-05-22T21:41:08.710Z,17.30
2023-05-22T21:43:35.595Z,17.30
2023-05-22T21:46:02.372Z,17.30
2023-05-22T21:48:28.932Z,17.20
2023-05-22T21:50:55.931Z,17.20
2023-05-22T21:53:22.735Z,17.10
2023-05-22T21:55:49.607Z,17.00
2023-05-22T21:58:16.093Z,17.00
2023-05-22T22:00:43.009Z,17.00
2023-05-22T22:03:09.638Z,17.00
2023-05-22T22:05:36.327Z,16.90
2023-05-22T22:08:03.210Z,16.80
2023-05-22T22:10:29.687Z,16.80
2023-05-22T22:12:56.815Z,16.70
2023-05-22T22:15:23.438Z,16.60
2023-05-22T22:17:50.318Z,16.50
2023-05-22T22:20:20.325Z,16.50
2023-05-22T22:22:49.414Z,16.50
2023-05-22T22:25:16.290Z,16.60
2023-05-22T22:27:43.076Z,16.60
2023-05-22T22:30:10.304Z,16.70
2023-05-22T22:32:36.981Z,16.70
2023-05-22T22:35:04.072Z,16.60
2023-05-22T22:37:30.917Z,16.60
2023-05-22T22:39:57.696Z,16.60
2023-05-22T22:42:24.197Z,16.60
2023-05-22T22:44:51.154Z,16.50
2023-05-22T22:47:18.023Z,16.50
2023-05-22T22:49:44.923Z,16.50
2023-05-22T22:52:11.414Z,16.40
2023-05-22T22:54:38.430Z,16.40
2023-05-22T22:57:05.120Z,16.40
2023-05-22T22:59:32.023Z,16.40
2023-05-22T23:01:58.931Z,16.40
2023-05-22T23:04:25.966Z,16.30
2023-05-22T23:06:52.588Z,16.30
2023-05-22T23:09:19.477Z,16.30
2023-05-22T23:11:45.973Z,16.20
2023-05-22T23:14:12.717Z,16.10
2023-05-22T23:16:39.891Z,16.00
2023-05-22T23:19:07.905Z,16.00
2023-05-22T23:21:35.075Z,16.00
2023-05-22T23:24:03.825Z,16.00
2023-05-22T23:26:31.357Z,16.00
2023-05-22T23:29:01.792Z,16.00
2023-05-22T23:31:29.877Z,16.00
2023-05-22T23:33:57.494Z,16.00
2023-05-22T23:36:24.677Z,16.00
2023-05-22T23:38:51.231Z,16.10
2023-05-22T23:41:17.951Z,16.10
2023-05-22T23:43:45.209Z,16.10
2023-05-22T23:46:12.491Z,16.20
2023-05-22T23:48:40.065Z,16.10
2023-05-22T23:51:07.748Z,16.20
2023-05-22T23:53:38.349Z,16.20
2023-05-22T23:56:05.532Z,16.20
2023-05-22T23:58:32.156Z,16.20
